createdAt,value
2023-01-29T00:01:57.134Z,102758.22
2023-01-29T00:04:24.273Z,102725.72
2023-01-29T00:06:50.965Z,102801.66
2023-01-29T00:09:18.479Z,102716.69
2023-01-29T00:11:45.221Z,102816.03
2023-01-29T00:14:12.014Z,102824.34
2023-01-29T00:16:38.704Z,102821.41
2023-01-29T00:19:05.463Z,102812.72
2023-01-29T00:21:32.444Z,102732.13
2023-01-29T00:24:00.113Z,102766.31
2023-01-29T00:26:26.766Z,102802.69
2023-01-29T00:28:53.888Z,102806.00
2023-01-29T00:31:23.637Z,102835.63
2023-01-29T00:33:50.594Z,102827.38
2023-01-29T00:36:19.063Z,102825.06
2023-01-29T00:38:54.454Z,102828.25
2023-01-29T00:41:41.506Z,102824.16
2023-01-29T00:44:28.745Z,102692.13
2023-01-29T00:46:55.408Z,102693.13
2023-01-29T00:49:22.133Z,102715.50
2023-01-29T00:52:08.985Z,102607.81
2023-01-29T00:54:36.329Z,102675.69
2023-01-29T00:57:04.346Z,102705.88
2023-01-29T00:59:31.821Z,102728.13
2023-01-29T01:02:16.978Z,102748.09
2023-01-29T01:04:43.527Z,102703.50
2023-01-29T01:09:55.097Z,102697.78
2023-01-29T01:12:22.112Z,102714.25
2023-01-29T01:14:49.060Z,102739.41
2023-01-29T01:17:15.780Z,102700.53
2023-01-29T01:19:42.941Z,102804.59
2023-01-29T01:22:09.613Z,102775.28
2023-01-29T01:24:36.275Z,102698.72
2023-01-29T01:27:03.092Z,102795.03
2023-01-29T01:29:29.752Z,102726.28
2023-01-29T01:31:56.471Z,102765.09
2023-01-29T01:34:23.877Z,102770.09
2023-01-29T01:36:50.435Z,102762.31
2023-01-29T01:39:16.959Z,102690.41
2023-01-29T01:41:43.536Z,102768.22
2023-01-29T01:44:47.806Z,102797.41
2023-01-29T01:47:15.976Z,102703.78
2023-01-29T01:49:44.050Z,102682.88
2023-01-29T01:52:13.558Z,102773.22
2023-01-29T01:54:40.923Z,102704.19
2023-01-29T01:57:16.145Z,102793.66
2023-01-29T01:59:50.346Z,102801.78
2023-01-29T02:02:36.201Z,102784.78
2023-01-29T02:05:21.452Z,102764.78
2023-01-29T02:08:08.961Z,102708.44
2023-01-29T02:10:41.468Z,102729.88
2023-01-29T02:13:08.281Z,102836.03
2023-01-29T02:15:34.867Z,102800.13
2023-01-29T02:18:02.248Z,102693.31
2023-01-29T02:20:32.013Z,102806.63
2023-01-29T02:23:38.612Z,102825.63
2023-01-29T02:26:50.381Z,102810.19
2023-01-29T02:29:30.462Z,102822.25
2023-01-29T02:32:36.924Z,102826.22
2023-01-29T02:35:29.728Z,102772.75
2023-01-29T02:38:15.693Z,102824.41
2023-01-29T02:40:48.291Z,102820.34
2023-01-29T02:43:20.959Z,102821.53
2023-01-29T02:45:54.034Z,102826.75
2023-01-29T02:48:24.549Z,102787.69
2023-01-29T02:51:00.440Z,102701.19
2023-01-29T02:53:38.179Z,102781.03
2023-01-29T02:56:15.301Z,102787.56
2023-01-29T02:58:46.011Z,102713.59
2023-01-29T03:01:19.015Z,102746.75
2023-01-29T03:03:55.804Z,102699.50
2023-01-29T03:06:53.159Z,102818.41
2023-01-29T03:09:34.145Z,102795.94
2023-01-29T03:12:19.813Z,102717.78
2023-01-29T03:15:16.870Z,102703.91
2023-01-29T03:18:00.382Z,102810.06
2023-01-29T03:20:32.821Z,102820.66
2023-01-29T03:23:07.755Z,102698.44
2023-01-29T03:25:58.922Z,102733.34
2023-01-29T03:28:48.867Z,102775.03
2023-01-29T03:31:37.196Z,102772.69
2023-01-29T03:34:16.363Z,102774.63
2023-01-29T03:36:55.758Z,102708.13
2023-01-29T03:39:24.378Z,102727.47
2023-01-29T03:42:00.681Z,102685.66
2023-01-29T03:44:42.434Z,102798.44
2023-01-29T03:47:30.991Z,102805.88
2023-01-29T03:50:38.863Z,102790.97
2023-01-29T03:53:43.976Z,102789.41
2023-01-29T03:56:32.696Z,102662.69
2023-01-29T03:59:11.861Z,102727.72
2023-01-29T04:02:08.626Z,102669.34
2023-01-29T04:04:37.854Z,102643.09
2023-01-29T04:07:23.693Z,102764.19
2023-01-29T04:10:07.169Z,102705.25
2023-01-29T04:12:55.106Z,102741.84
2023-01-29T04:15:25.659Z,102739.34
2023-01-29T04:17:53.282Z,102679.91
2023-01-29T04:20:27.364Z,102647.94
2023-01-29T04:22:54.707Z,102716.88
2023-01-29T04:25:28.849Z,102748.09
2023-01-29T04:28:23.288Z,102712.06
2023-01-29T04:30:55.707Z,102710.75
2023-01-29T04:33:44.452Z,102739.22
2023-01-29T04:36:46.258Z,102737.66
2023-01-29T04:39:23.995Z,102696.88
2023-01-29T04:42:04.886Z,102701.56
2023-01-29T04:44:49.860Z,102715.69
2023-01-29T04:47:37.163Z,102703.78
2023-01-29T04:50:14.922Z,102671.13
2023-01-29T04:53:03.299Z,102704.69
2023-01-29T04:55:56.805Z,102704.94
2023-01-29T04:58:41.382Z,102608.31
2023-01-29T05:01:13.035Z,102678.69
2023-01-29T05:03:42.838Z,102696.06
2023-01-29T05:06:11.638Z,102681.31
2023-01-29T05:08:39.679Z,102620.47
2023-01-29T05:11:06.920Z,102672.53
2023-01-29T05:13:39.431Z,102695.91
2023-01-29T05:16:09.770Z,102692.63
2023-01-29T05:18:36.567Z,102629.44
2023-01-29T05:21:07.446Z,102585.97
2023-01-29T05:23:34.313Z,102591.84
2023-01-29T05:26:01.109Z,102655.78
2023-01-29T05:28:27.705Z,102642.09
2023-01-29T05:30:56.775Z,102522.94
2023-01-29T05:33:28.041Z,102690.22
2023-01-29T05:35:56.028Z,102682.38
2023-01-29T05:38:23.201Z,102666.59
2023-01-29T05:40:49.853Z,102690.34
2023-01-29T05:43:19.084Z,102691.03
2023-01-29T05:45:59.666Z,102620.00
2023-01-29T05:48:32.308Z,102680.31
2023-01-29T05:51:03.664Z,102705.38
2023-01-29T05:53:31.312Z,102637.78
2023-01-29T05:56:01.383Z,102650.03
2023-01-29T05:58:28.196Z,102595.47
2023-01-29T06:00:54.722Z,102624.16
2023-01-29T06:03:21.209Z,102672.97
2023-01-29T06:05:47.807Z,102710.06
2023-01-29T06:08:14.395Z,102648.66
2023-01-29T06:10:41.001Z,102706.91
2023-01-29T06:13:07.926Z,102726.25
2023-01-29T06:15:34.568Z,102697.75
2023-01-29T06:18:01.092Z,102708.72
2023-01-29T06:20:27.756Z,102700.50
2023-01-29T06:22:54.400Z,102669.69
2023-01-29T06:25:21.064Z,102676.81
2023-01-29T06:27:51.085Z,102657.50
2023-01-29T06:30:18.002Z,102641.31
2023-01-29T06:32:44.765Z,102578.19
2023-01-29T06:35:11.329Z,102597.09
2023-01-29T06:37:38.329Z,102606.50
2023-01-29T06:40:05.435Z,102646.00
2023-01-29T06:42:32.078Z,102519.59
2023-01-29T06:44:58.568Z,102560.91
2023-01-29T06:47:27.125Z,102690.00
2023-01-29T06:49:53.704Z,102680.06
2023-01-29T06:52:20.204Z,102685.66
2023-01-29T06:54:47.465Z,102645.59
2023-01-29T06:57:14.064Z,102645.19
2023-01-29T06:59:40.668Z,102645.19
2023-01-29T07:02:07.278Z,102586.22
2023-01-29T07:04:35.492Z,102591.72
2023-01-29T07:07:02.105Z,102643.41
2023-01-29T07:09:28.681Z,102593.03
2023-01-29T07:11:55.283Z,102680.94
2023-01-29T07:14:22.071Z,102657.88
2023-01-29T07:16:48.680Z,102698.22
2023-01-29T07:19:15.305Z,102587.94
2023-01-29T07:21:41.941Z,102673.16
2023-01-29T07:24:08.808Z,102681.22
2023-01-29T07:26:35.433Z,102590.38
2023-01-29T07:29:01.949Z,102570.53
2023-01-29T07:31:28.657Z,102652.44
2023-01-29T07:33:55.874Z,102659.25
2023-01-29T07:36:24.050Z,102634.97
2023-01-29T07:38:51.341Z,102675.16
2023-01-29T07:41:17.943Z,102669.53
2023-01-29T07:43:46.096Z,102669.91
2023-01-29T07:46:12.766Z,102648.25
2023-01-29T07:48:39.406Z,102598.44
2023-01-29T07:51:06.550Z,102658.41
2023-01-29T07:53:33.368Z,102573.84
2023-01-29T07:56:00.188Z,102660.84
2023-01-29T07:58:26.718Z,102632.78
2023-01-29T08:00:53.281Z,102676.34
2023-01-29T08:03:20.744Z,102622.63
2023-01-29T08:05:47.448Z,102566.25
2023-01-29T08:08:14.917Z,102451.53
2023-01-29T08:10:41.769Z,102588.78
2023-01-29T08:13:09.065Z,102647.19
2023-01-29T08:15:38.011Z,102667.38
2023-01-29T08:18:05.866Z,102650.88
2023-01-29T08:20:32.467Z,102636.19
2023-01-29T08:23:01.163Z,102643.88
2023-01-29T08:25:28.584Z,102633.28
2023-01-29T08:27:57.487Z,102614.69
2023-01-29T08:30:29.660Z,102599.75
2023-01-29T08:32:56.350Z,102638.56
2023-01-29T08:35:23.503Z,102547.44
2023-01-29T08:37:59.363Z,102635.25
2023-01-29T08:40:27.825Z,102548.06
2023-01-29T08:43:01.509Z,102607.94
2023-01-29T08:45:28.999Z,102610.94
2023-01-29T08:47:55.529Z,102513.13
2023-01-29T08:50:22.168Z,102557.38
2023-01-29T08:52:48.653Z,102603.44
2023-01-29T08:55:15.559Z,102502.56
2023-01-29T08:57:42.245Z,102532.53
2023-01-29T09:00:10.170Z,102622.63
2023-01-29T09:02:37.690Z,102552.28
2023-01-29T09:05:05.585Z,102604.84
2023-01-29T09:07:32.164Z,102600.38
2023-01-29T09:09:58.753Z,102519.22
2023-01-29T09:12:25.893Z,102564.47
2023-01-29T09:14:52.574Z,102514.91
2023-01-29T09:17:19.358Z,102612.34
2023-01-29T09:19:46.025Z,102574.72
2023-01-29T09:22:15.621Z,102562.88
2023-01-29T09:24:42.254Z,102594.91
2023-01-29T09:27:10.001Z,102587.81
2023-01-29T09:29:37.117Z,102578.81
2023-01-29T09:32:04.623Z,102609.13
2023-01-29T09:34:31.279Z,102554.44
2023-01-29T09:36:57.922Z,102601.25
2023-01-29T09:39:24.509Z,102528.19
2023-01-29T09:42:03.165Z,102618.41
2023-01-29T09:44:38.913Z,102622.97
2023-01-29T09:47:13.201Z,102582.31
2023-01-29T09:50:01.503Z,102603.16
2023-01-29T09:52:30.173Z,102616.34
2023-01-29T09:55:28.508Z,102620.19
2023-01-29T09:57:58.421Z,102533.84
2023-01-29T10:00:37.449Z,102521.44
2023-01-29T10:03:31.737Z,102613.56
2023-01-29T10:06:34.948Z,102617.66
2023-01-29T10:09:33.509Z,102616.84
2023-01-29T10:12:27.372Z,102607.09
2023-01-29T10:15:45.208Z,102608.59
2023-01-29T10:18:35.783Z,102596.09
2023-01-29T10:21:19.579Z,102558.34
2023-01-29T10:23:50.873Z,102590.25
2023-01-29T10:26:21.188Z,102581.63
2023-01-29T10:28:50.825Z,102516.69
2023-01-29T10:31:24.955Z,102606.19
2023-01-29T10:34:03.466Z,102514.59
2023-01-29T10:36:45.727Z,102527.28
2023-01-29T10:39:18.367Z,102566.50
2023-01-29T10:42:01.583Z,102487.78
2023-01-29T10:44:39.508Z,102592.56
2023-01-29T10:47:30.236Z,102585.75
2023-01-29T10:50:21.356Z,102571.50
2023-01-29T10:52:55.122Z,102576.16
2023-01-29T10:55:46.565Z,102551.69
2023-01-29T10:58:37.510Z,102526.41
2023-01-29T11:01:04.516Z,102514.56
2023-01-29T11:03:33.295Z,102548.69
2023-01-29T11:06:19.543Z,102511.25
2023-01-29T11:09:23.111Z,102548.91
2023-01-29T11:11:54.497Z,102453.72
2023-01-29T11:14:26.625Z,102505.00
2023-01-29T11:16:53.365Z,102450.81
2023-01-29T11:19:37.219Z,102501.78
2023-01-29T11:22:04.430Z,102441.00
2023-01-29T11:24:31.079Z,102497.16
2023-01-29T11:26:59.672Z,102441.34
2023-01-29T11:29:43.113Z,102511.13
2023-01-29T11:32:21.786Z,102422.53
2023-01-29T11:34:58.675Z,102503.22
2023-01-29T11:37:32.420Z,102493.09
2023-01-29T11:39:59.234Z,102403.53
2023-01-29T11:42:34.760Z,102474.47
2023-01-29T11:45:01.330Z,102361.16
2023-01-29T11:47:30.240Z,102413.19
2023-01-29T11:50:03.114Z,102383.50
2023-01-29T11:52:42.054Z,102468.47
2023-01-29T11:55:18.697Z,102427.31
2023-01-29T11:57:52.125Z,102393.16
2023-01-29T12:00:28.289Z,102362.34
2023-01-29T12:02:57.809Z,102350.25
2023-01-29T12:05:26.483Z,102437.31
2023-01-29T12:07:56.612Z,102436.78
2023-01-29T12:10:35.601Z,102455.72
2023-01-29T12:13:11.116Z,102386.78
2023-01-29T12:15:42.642Z,102324.06
2023-01-29T12:18:14.449Z,102333.94
2023-01-29T12:20:47.792Z,102322.75
2023-01-29T12:23:33.549Z,102407.53
2023-01-29T12:26:12.807Z,102282.94
2023-01-29T12:28:43.856Z,102399.38
2023-01-29T12:31:33.109Z,102350.09
2023-01-29T12:34:56.349Z,102394.09
2023-01-29T12:37:31.761Z,102389.03
2023-01-29T12:39:58.396Z,102322.16
2023-01-29T12:42:25.468Z,102275.91
2023-01-29T12:44:57.553Z,102352.97
2023-01-29T12:47:31.069Z,102266.66
2023-01-29T12:50:03.538Z,102365.97
2023-01-29T12:53:07.308Z,102358.69
2023-01-29T12:55:45.121Z,102258.19
2023-01-29T12:58:28.622Z,102356.31
2023-01-29T13:01:00.889Z,102343.59
2023-01-29T13:03:37.460Z,102345.41
2023-01-29T13:06:10.701Z,102260.91
2023-01-29T13:08:44.950Z,102303.59
2023-01-29T13:11:19.670Z,102251.09
2023-01-29T13:13:54.606Z,102237.19
2023-01-29T13:16:33.348Z,102326.91
2023-01-29T13:19:23.999Z,102214.75
2023-01-29T13:21:53.511Z,102235.19
2023-01-29T13:24:23.476Z,102295.81
2023-01-29T13:26:50.862Z,102218.63
2023-01-29T13:29:23.706Z,102315.16
2023-01-29T13:31:53.566Z,102250.97
2023-01-29T13:34:22.873Z,102303.94
2023-01-29T13:36:56.106Z,102203.22
2023-01-29T13:39:25.026Z,102294.22
2023-01-29T13:41:52.955Z,102299.75
2023-01-29T13:44:42.242Z,102250.72
2023-01-29T13:47:11.854Z,102202.06
2023-01-29T13:49:41.850Z,102248.91
2023-01-29T13:52:27.548Z,102241.91
2023-01-29T13:54:58.642Z,102273.06
2023-01-29T13:57:40.361Z,102287.22
2023-01-29T14:00:32.962Z,102273.88
2023-01-29T14:03:04.622Z,102274.88
2023-01-29T14:05:31.185Z,102276.53
2023-01-29T14:08:02.081Z,102147.63
2023-01-29T14:10:30.638Z,102170.88
2023-01-29T14:13:03.220Z,102271.44
2023-01-29T14:15:34.043Z,102272.06
2023-01-29T14:18:22.063Z,102249.28
2023-01-29T14:20:48.492Z,102279.69
2023-01-29T14:23:33.171Z,102157.06
2023-01-29T14:26:02.509Z,102234.88
2023-01-29T14:28:30.937Z,102122.81
2023-01-29T14:30:58.226Z,102158.94
2023-01-29T14:33:37.458Z,102156.75
2023-01-29T14:36:12.554Z,102220.72
2023-01-29T14:38:46.416Z,102218.81
2023-01-29T14:41:33.998Z,102119.19
2023-01-29T14:44:38.021Z,102236.34
2023-01-29T14:47:04.881Z,102237.06
2023-01-29T14:49:50.215Z,102238.97
2023-01-29T14:52:20.552Z,102203.84
2023-01-29T14:54:48.629Z,102238.41
2023-01-29T14:57:17.862Z,102183.25
2023-01-29T14:59:49.139Z,102224.25
2023-01-29T15:02:22.854Z,102122.47
2023-01-29T15:04:53.881Z,102226.81
2023-01-29T15:07:30.156Z,102119.81
2023-01-29T15:10:22.237Z,102134.91
2023-01-29T15:12:58.128Z,102124.00
2023-01-29T15:15:56.984Z,102217.91
2023-01-29T15:18:43.209Z,102163.09
2023-01-29T15:21:15.623Z,102151.47
2023-01-29T15:23:44.135Z,102199.56
2023-01-29T15:26:19.052Z,102112.28
2023-01-29T15:29:02.127Z,102164.19
2023-01-29T15:31:31.243Z,102205.94
2023-01-29T15:34:06.612Z,102185.25
2023-01-29T15:36:33.566Z,102108.22
2023-01-29T15:39:28.282Z,102198.84
2023-01-29T15:42:12.671Z,102150.22
2023-01-29T15:44:45.566Z,102150.22
2023-01-29T15:47:13.534Z,102144.31
2023-01-29T15:49:41.295Z,102154.47
2023-01-29T15:52:15.919Z,102174.06
2023-01-29T15:54:44.043Z,102145.31
2023-01-29T15:57:21.531Z,102137.97
2023-01-29T15:59:51.742Z,102054.72
2023-01-29T16:02:39.646Z,102164.19
2023-01-29T16:05:30.610Z,102136.44
2023-01-29T16:07:57.716Z,102134.25
2023-01-29T16:10:29.984Z,102151.56
2023-01-29T16:12:57.869Z,102123.91
2023-01-29T16:15:33.923Z,102111.00
2023-01-29T16:18:03.232Z,102132.78
2023-01-29T16:20:46.731Z,102142.22
2023-01-29T16:23:19.923Z,102099.78
2023-01-29T16:25:48.848Z,102050.44
2023-01-29T16:28:16.351Z,102112.00
2023-01-29T16:30:43.033Z,102126.28
2023-01-29T16:33:14.638Z,102035.38
2023-01-29T16:35:41.887Z,102026.69
2023-01-29T16:38:32.501Z,102123.38
2023-01-29T16:41:14.232Z,101998.25
2023-01-29T16:43:43.575Z,102130.91
2023-01-29T16:46:44.716Z,102130.91
2023-01-29T16:49:26.804Z,102128.28
2023-01-29T16:51:56.263Z,102093.81
2023-01-29T16:54:27.551Z,102089.44
2023-01-29T16:56:58.965Z,102128.28
2023-01-29T16:59:34.082Z,102072.31
2023-01-29T17:02:01.060Z,102015.38
2023-01-29T17:04:28.042Z,102093.63
2023-01-29T17:06:58.693Z,102121.19
2023-01-29T17:09:34.807Z,102016.91
2023-01-29T17:12:05.538Z,102010.19
2023-01-29T17:14:33.281Z,102088.44
2023-01-29T17:17:14.335Z,102015.25
2023-01-29T17:19:40.920Z,102060.59
2023-01-29T17:22:14.804Z,102105.41
2023-01-29T17:24:42.116Z,102066.03
2023-01-29T17:27:18.761Z,102105.31
2023-01-29T17:29:45.562Z,102110.13
2023-01-29T17:32:12.640Z,102084.19
2023-01-29T17:34:39.527Z,102079.72
2023-01-29T17:37:06.053Z,101976.81
2023-01-29T17:39:32.707Z,101985.69
2023-01-29T17:41:59.355Z,102060.03
2023-01-29T17:44:26.145Z,102003.44
2023-01-29T17:46:52.828Z,102069.81
2023-01-29T17:49:27.728Z,101945.69
2023-01-29T17:51:56.049Z,102073.84
2023-01-29T17:54:23.126Z,101978.19
2023-01-29T17:56:50.493Z,102001.50
2023-01-29T17:59:22.195Z,102084.53
2023-01-29T18:01:50.073Z,101971.59
2023-01-29T18:04:17.784Z,102002.97
2023-01-29T18:06:47.500Z,102063.53
2023-01-29T18:09:15.640Z,101931.66
2023-01-29T18:11:43.101Z,101973.34
2023-01-29T18:14:14.498Z,102062.97
2023-01-29T18:16:42.930Z,102092.34
2023-01-29T18:19:16.258Z,102049.19
2023-01-29T18:21:42.839Z,102000.63
2023-01-29T18:24:09.462Z,102077.69
2023-01-29T18:26:36.461Z,101965.81
2023-01-29T18:29:04.359Z,101952.16
2023-01-29T18:31:31.697Z,102003.72
2023-01-29T18:33:58.386Z,102005.44
2023-01-29T18:36:25.097Z,102030.09
2023-01-29T18:38:51.775Z,101932.59
2023-01-29T18:41:18.612Z,102021.47
2023-01-29T18:43:45.241Z,101930.06
2023-01-29T18:46:11.944Z,101914.56
2023-01-29T18:48:39.916Z,102010.78
2023-01-29T18:51:07.545Z,101906.44
2023-01-29T18:53:34.149Z,101982.88
2023-01-29T18:56:04.300Z,101885.50
2023-01-29T18:58:34.424Z,102003.72
2023-01-29T19:01:01.958Z,101990.22
2023-01-29T19:03:28.671Z,101896.19
2023-01-29T19:06:01.119Z,101979.97
2023-01-29T19:08:27.977Z,101979.97
2023-01-29T19:10:54.793Z,101840.78
2023-01-29T19:13:21.580Z,101958.59
2023-01-29T19:15:49.043Z,101936.47
2023-01-29T19:18:15.763Z,101887.41
2023-01-29T19:20:42.428Z,101957.28
2023-01-29T19:23:09.546Z,101905.31
2023-01-29T19:25:38.678Z,101860.94
2023-01-29T19:28:06.986Z,101825.84
2023-01-29T19:30:33.697Z,101922.34
2023-01-29T19:33:00.281Z,101861.50
2023-01-29T19:35:27.001Z,101942.06
2023-01-29T19:37:53.515Z,101925.94
2023-01-29T19:40:20.982Z,101906.47
2023-01-29T19:42:48.472Z,101883.50
2023-01-29T19:45:15.359Z,101900.22
2023-01-29T19:47:43.403Z,101885.84
2023-01-29T19:50:11.205Z,101901.28
2023-01-29T19:52:50.649Z,101781.28
2023-01-29T19:55:18.880Z,101747.09
2023-01-29T19:57:46.256Z,101830.47
2023-01-29T20:00:17.256Z,101875.91
2023-01-29T20:02:43.912Z,101833.28
2023-01-29T20:05:12.624Z,101773.31
2023-01-29T20:07:41.077Z,101786.69
2023-01-29T20:10:11.336Z,101893.22
2023-01-29T20:12:38.356Z,101791.59
2023-01-29T20:15:05.345Z,101888.88
2023-01-29T20:17:32.137Z,101772.22
2023-01-29T20:19:58.662Z,101887.06
2023-01-29T20:22:26.499Z,101869.03
2023-01-29T20:24:53.167Z,101893.47
2023-01-29T20:27:19.738Z,101847.03
2023-01-29T20:29:46.593Z,101798.56
2023-01-29T20:32:14.461Z,101884.59
2023-01-29T20:34:41.325Z,101785.63
2023-01-29T20:37:07.841Z,101857.63
2023-01-29T20:39:34.377Z,101706.00
2023-01-29T20:42:00.919Z,101835.13
2023-01-29T20:44:27.495Z,101828.22
2023-01-29T20:46:54.135Z,101850.28
2023-01-29T20:49:21.711Z,101824.78
2023-01-29T20:51:48.568Z,101828.22
2023-01-29T20:54:15.155Z,101764.34
2023-01-29T20:56:42.859Z,101855.03
2023-01-29T20:59:10.375Z,101876.91
2023-01-29T21:01:37.067Z,101860.31
2023-01-29T21:04:03.758Z,101762.81
2023-01-29T21:06:30.462Z,101829.56
2023-01-29T21:08:57.114Z,101863.94
2023-01-29T21:11:23.862Z,101764.78
2023-01-29T21:13:53.158Z,101857.53
2023-01-29T21:16:19.876Z,101761.16
2023-01-29T21:18:46.556Z,101849.28
2023-01-29T21:21:13.229Z,101840.28
2023-01-29T21:23:39.819Z,101754.28
2023-01-29T21:26:07.138Z,101856.22
2023-01-29T21:28:33.862Z,101780.75
2023-01-29T21:31:10.079Z,101866.66
2023-01-29T21:33:37.563Z,101828.63
2023-01-29T21:36:04.578Z,101749.94
2023-01-29T21:38:31.157Z,101728.59
2023-01-29T21:41:02.715Z,101745.03
2023-01-29T21:43:29.306Z,101834.63
2023-01-29T21:45:57.466Z,101845.38
2023-01-29T21:48:24.621Z,101842.25
2023-01-29T21:50:52.354Z,101855.25
2023-01-29T21:53:19.168Z,101738.28
2023-01-29T21:55:46.374Z,101717.19
2023-01-29T21:58:14.523Z,101728.50
2023-01-29T22:00:41.250Z,101851.97
2023-01-29T22:03:07.886Z,101716.03
2023-01-29T22:05:34.770Z,101802.63
2023-01-29T22:08:01.505Z,101814.56
2023-01-29T22:10:28.855Z,101825.00
2023-01-29T22:12:55.682Z,101751.34
2023-01-29T22:15:23.909Z,101807.72
2023-01-29T22:17:51.106Z,101772.03
2023-01-29T22:20:18.857Z,101683.47
2023-01-29T22:22:45.738Z,101764.25
2023-01-29T22:25:12.627Z,101661.63
2023-01-29T22:27:39.155Z,101633.19
2023-01-29T22:30:06.562Z,101707.88
2023-01-29T22:32:33.345Z,101721.47
2023-01-29T22:34:59.945Z,101675.97
2023-01-29T22:37:26.563Z,101662.50
2023-01-29T22:39:53.076Z,101621.34
2023-01-29T22:42:20.572Z,101698.91
2023-01-29T22:44:48.101Z,101697.53
2023-01-29T22:47:14.926Z,101708.53
2023-01-29T22:49:42.346Z,101712.50
2023-01-29T22:52:11.902Z,101662.06
2023-01-29T22:54:40.399Z,101731.31
2023-01-29T22:57:10.055Z,101723.50
2023-01-29T22:59:37.318Z,101695.06
2023-01-29T23:02:04.499Z,101609.34
2023-01-29T23:04:31.272Z,101692.19
2023-01-29T23:06:57.831Z,101601.53
2023-01-29T23:09:24.413Z,101695.59
2023-01-29T23:11:51.065Z,101556.59
2023-01-29T23:14:17.959Z,101643.16
2023-01-29T23:16:44.554Z,101547.28
2023-01-29T23:19:12.140Z,101634.31
2023-01-29T23:21:39.572Z,101674.00
2023-01-29T23:24:07.440Z,101675.13
2023-01-29T23:26:52.930Z,101635.44
2023-01-29T23:29:19.533Z,101662.66
2023-01-29T23:31:46.221Z,101645.19
2023-01-29T23:34:13.758Z,101675.28
2023-01-29T23:36:40.464Z,101567.19
2023-01-29T23:39:07.747Z,101650.09
2023-01-29T23:41:34.462Z,101666.94
2023-01-29T23:44:01.132Z,101632.03
2023-01-29T23:46:27.814Z,101631.22
2023-01-29T23:48:54.384Z,101540.81
2023-01-29T23:51:21.069Z,101630.50
2023-01-29T23:53:47.623Z,101609.75
2023-01-29T23:56:14.168Z,101514.19
2023-01-29T23:58:40.752Z,101609.22
